createdAt,value
2022-09-19T00:01:58.916Z,100.00
2022-09-19T00:04:34.452Z,100.00
2022-09-19T00:07:03.089Z,100.00
2022-09-19T00:09:33.843Z,100.00
2022-09-19T00:12:12.319Z,100.00
2022-09-19T00:14:40.954Z,100.00
2022-09-19T00:17:09.300Z,100.00
2022-09-19T00:19:39.138Z,100.00
2022-09-19T00:22:11.527Z,100.00
2022-09-19T00:24:50.739Z,100.00
2022-09-19T00:27:30.464Z,100.00
2022-09-19T00:29:59.977Z,100.00
2022-09-19T00:32:29.218Z,100.00
2022-09-19T00:34:57.502Z,100.00
2022-09-19T00:37:25.842Z,100.00
2022-09-19T00:39:55.467Z,100.00
2022-09-19T00:42:26.586Z,100.00
2022-09-19T00:44:59.267Z,100.00
2022-09-19T00:47:43.476Z,100.00
2022-09-19T00:50:28.708Z,100.00
2022-09-19T00:53:12.490Z,100.00
2022-09-19T00:55:41.878Z,100.00
2022-09-19T00:58:40.995Z,100.00
2022-09-19T01:01:09.540Z,100.00
2022-09-19T01:03:38.352Z,100.00
2022-09-19T01:06:37.598Z,100.00
2022-09-19T01:10:04.074Z,100.00
2022-09-19T01:13:22.480Z,100.00
2022-09-19T01:19:09.071Z,100.00
2022-09-19T01:22:09.935Z,100.00
2022-09-19T01:25:39.975Z,100.00
2022-09-19T01:28:23.174Z,100.00
2022-09-19T01:34:53.583Z,100.00
2022-09-19T01:37:32.818Z,100.00
2022-09-19T01:40:06.710Z,100.00
2022-09-19T01:42:35.227Z,100.00
2022-09-19T01:45:03.755Z,100.00
2022-09-19T01:48:06.660Z,100.00
2022-09-19T01:51:01.074Z,100.00
2022-09-19T01:54:00.008Z,100.00
2022-09-19T01:57:25.622Z,100.00
2022-09-19T02:00:14.289Z,100.00
2022-09-19T02:03:30.015Z,100.00
2022-09-19T02:06:41.538Z,100.00
2022-09-19T02:09:33.772Z,100.00
2022-09-19T02:12:04.483Z,100.00
2022-09-19T02:14:36.916Z,100.00
2022-09-19T02:17:09.122Z,100.00
2022-09-19T02:22:38.596Z,100.00
2022-09-19T02:25:15.686Z,100.00
2022-09-19T02:27:51.330Z,100.00
2022-09-19T02:30:21.400Z,100.00
2022-09-19T02:32:51.809Z,100.00
2022-09-19T02:35:35.880Z,100.00
2022-09-19T02:41:43.613Z,100.00
2022-09-19T02:44:22.582Z,100.00
2022-09-19T02:47:16.048Z,100.00
2022-09-19T02:49:58.274Z,100.00
2022-09-19T02:52:32.282Z,100.00
2022-09-19T02:55:41.663Z,100.00
2022-09-19T02:58:12.602Z,100.00
2022-09-19T03:00:41.496Z,100.00
2022-09-19T03:03:42.114Z,100.00
2022-09-19T03:06:14.095Z,100.00
2022-09-19T03:08:46.419Z,100.00
2022-09-19T03:11:19.809Z,100.00
2022-09-19T03:13:48.212Z,100.00
2022-09-19T03:16:23.817Z,100.00
2022-09-19T03:18:57.182Z,100.00
2022-09-19T03:21:28.425Z,100.00
2022-09-19T03:24:00.080Z,100.00
2022-09-19T03:26:35.306Z,100.00
2022-09-19T03:29:10.234Z,100.00
2022-09-19T03:31:38.618Z,100.00
2022-09-19T03:34:07.448Z,100.00
2022-09-19T03:36:35.721Z,100.00
2022-09-19T03:39:04.223Z,100.00
2022-09-19T03:41:33.064Z,100.00
2022-09-19T03:44:02.851Z,100.00
2022-09-19T03:46:33.092Z,100.00
2022-09-19T03:49:03.541Z,100.00
2022-09-19T03:51:34.687Z,100.00
2022-09-19T03:54:03.039Z,100.00
2022-09-19T03:56:31.461Z,100.00
2022-09-19T03:58:59.967Z,100.00
2022-09-19T04:01:28.213Z,100.00
2022-09-19T04:03:56.669Z,100.00
2022-09-19T04:06:24.929Z,100.00
2022-09-19T04:08:53.219Z,100.00
2022-09-19T04:11:22.092Z,100.00
2022-09-19T04:13:50.500Z,100.00
2022-09-19T04:16:18.996Z,100.00
2022-09-19T04:18:51.405Z,100.00
2022-09-19T04:21:20.026Z,100.00
2022-09-19T04:23:48.356Z,100.00
2022-09-19T04:26:17.632Z,100.00
2022-09-19T04:28:47.081Z,100.00
2022-09-19T04:31:15.720Z,100.00
2022-09-19T04:33:44.125Z,100.00
2022-09-19T04:36:14.143Z,100.00
2022-09-19T04:38:42.405Z,100.00
2022-09-19T04:41:10.971Z,100.00
2022-09-19T04:43:39.246Z,100.00
2022-09-19T04:46:07.710Z,100.00
2022-09-19T04:48:36.161Z,100.00
2022-09-19T04:51:14.135Z,100.00
2022-09-19T04:53:42.591Z,100.00
2022-09-19T04:56:12.351Z,100.00
2022-09-19T04:58:41.853Z,100.00
2022-09-19T05:01:12.152Z,100.00
2022-09-19T05:03:44.932Z,100.00
2022-09-19T05:06:13.652Z,100.00
2022-09-19T05:08:42.091Z,100.00
2022-09-19T05:11:11.417Z,100.00
2022-09-19T05:13:40.335Z,100.00
2022-09-19T05:16:09.223Z,100.00
2022-09-19T05:18:38.751Z,100.00
2022-09-19T05:21:12.109Z,100.00
2022-09-19T05:23:41.202Z,100.00
2022-09-19T05:26:18.353Z,100.00
2022-09-19T05:28:47.171Z,100.00
2022-09-19T05:31:18.181Z,100.00
2022-09-19T05:33:47.833Z,100.00
2022-09-19T05:36:16.187Z,100.00
2022-09-19T05:38:45.448Z,100.00
2022-09-19T05:41:13.731Z,100.00
2022-09-19T05:43:42.026Z,100.00
2022-09-19T05:46:10.534Z,100.00
2022-09-19T05:48:39.181Z,100.00
2022-09-19T05:51:07.807Z,100.00
2022-09-19T05:53:54.722Z,100.00
2022-09-19T05:56:24.231Z,100.00
2022-09-19T05:58:54.365Z,100.00
2022-09-19T06:01:22.927Z,100.00
2022-09-19T06:03:51.278Z,100.00
2022-09-19T06:06:20.175Z,100.00
2022-09-19T06:09:00.085Z,100.00
2022-09-19T06:11:28.619Z,100.00
2022-09-19T06:14:15.221Z,100.00
2022-09-19T06:16:45.149Z,100.00
2022-09-19T06:19:13.497Z,100.00
2022-09-19T06:21:41.746Z,100.00
2022-09-19T06:24:10.356Z,100.00
2022-09-19T06:26:39.086Z,100.00
2022-09-19T06:29:08.233Z,100.00
2022-09-19T06:31:37.287Z,100.00
2022-09-19T06:34:05.604Z,100.00
2022-09-19T06:36:34.019Z,100.00
2022-09-19T06:39:02.269Z,100.00
2022-09-19T06:41:32.066Z,100.00
2022-09-19T06:44:00.334Z,100.00
2022-09-19T06:46:29.126Z,100.00
2022-09-19T06:48:58.130Z,100.00
2022-09-19T06:51:26.607Z,100.00
2022-09-19T06:53:54.861Z,100.00
2022-09-19T06:56:23.176Z,100.00
2022-09-19T06:58:51.545Z,100.00
2022-09-19T07:01:20.037Z,100.00
2022-09-19T07:03:48.477Z,100.00
2022-09-19T07:06:16.770Z,100.00
2022-09-19T07:08:45.276Z,100.00
2022-09-19T07:11:13.615Z,100.00
2022-09-19T07:13:42.014Z,100.00
2022-09-19T07:16:10.542Z,100.00
2022-09-19T07:18:39.204Z,100.00
2022-09-19T07:21:07.497Z,100.00
2022-09-19T07:23:35.790Z,100.00
2022-09-19T07:26:04.885Z,100.00
2022-09-19T07:28:33.803Z,100.00
2022-09-19T07:31:02.332Z,100.00
2022-09-19T07:33:31.418Z,100.00
2022-09-19T07:36:00.258Z,100.00
2022-09-19T07:38:28.967Z,100.00
2022-09-19T07:40:57.372Z,100.00
2022-09-19T07:43:25.904Z,100.00
2022-09-19T07:45:54.563Z,100.00
2022-09-19T07:48:23.503Z,100.00
2022-09-19T07:50:56.090Z,100.00
2022-09-19T07:53:25.789Z,100.00
2022-09-19T07:55:57.488Z,100.00
2022-09-19T07:58:28.090Z,100.00
2022-09-19T08:01:01.212Z,100.00
2022-09-19T08:03:29.573Z,100.00
2022-09-19T08:06:03.054Z,100.00
2022-09-19T08:08:31.364Z,100.00
2022-09-19T08:11:03.566Z,100.00
2022-09-19T08:13:31.885Z,100.00
2022-09-19T08:16:03.258Z,100.00
2022-09-19T08:18:32.435Z,100.00
2022-09-19T08:21:00.683Z,100.00
2022-09-19T08:23:30.473Z,100.00
2022-09-19T08:25:58.876Z,100.00
2022-09-19T08:28:31.184Z,100.00
2022-09-19T08:31:01.343Z,100.00
2022-09-19T08:33:30.674Z,100.00
2022-09-19T08:36:00.664Z,100.00
2022-09-19T08:38:28.978Z,100.00
2022-09-19T08:41:44.543Z,100.00
2022-09-19T08:44:45.977Z,100.00
2022-09-19T08:47:20.601Z,100.00
2022-09-19T08:50:28.461Z,100.00
2022-09-19T08:53:01.920Z,100.00
2022-09-19T08:55:36.624Z,100.00
2022-09-19T08:58:18.635Z,100.00
2022-09-19T09:00:48.828Z,100.00
2022-09-19T09:03:39.356Z,100.00
2022-09-19T09:06:39.425Z,100.00
2022-09-19T09:09:28.110Z,100.00
2022-09-19T09:12:16.364Z,100.00
2022-09-19T09:15:19.827Z,100.00
2022-09-19T09:18:15.265Z,100.00
2022-09-19T09:21:29.230Z,100.00
2022-09-19T09:24:32.987Z,100.00
2022-09-19T09:27:06.380Z,99.78
2022-09-19T09:29:42.241Z,99.98
2022-09-19T09:32:32.343Z,99.64
2022-09-19T09:35:14.131Z,98.88
2022-09-19T09:37:54.431Z,98.65
2022-09-19T09:40:58.776Z,98.03
2022-09-19T09:43:34.774Z,96.27
2022-09-19T09:46:11.802Z,95.95
2022-09-19T09:48:40.543Z,95.93
2022-09-19T09:51:40.469Z,96.22
2022-09-19T09:54:39.826Z,95.64
2022-09-19T09:57:45.094Z,95.48
2022-09-19T10:00:35.298Z,95.53
2022-09-19T10:03:51.691Z,94.47
2022-09-19T10:06:24.716Z,94.27
2022-09-19T10:09:21.444Z,94.31
2022-09-19T10:15:10.540Z,94.62
2022-09-19T10:17:47.317Z,94.83
2022-09-19T10:20:35.973Z,95.44
2022-09-19T10:23:04.320Z,95.04
2022-09-19T10:25:33.003Z,95.12
2022-09-19T10:28:28.434Z,94.75
2022-09-19T10:31:01.798Z,93.98
2022-09-19T10:33:46.512Z,94.15
2022-09-19T10:36:34.747Z,94.66
2022-09-19T10:39:15.910Z,95.04
2022-09-19T10:41:44.891Z,94.48
2022-09-19T10:44:28.080Z,94.25
2022-09-19T10:47:02.624Z,93.94
2022-09-19T10:50:01.655Z,94.17
2022-09-19T10:52:51.396Z,94.02
2022-09-19T10:55:23.900Z,94.51
2022-09-19T10:58:05.038Z,94.62
2022-09-19T11:00:52.719Z,94.78
2022-09-19T11:03:29.858Z,94.65
2022-09-19T11:06:17.434Z,94.85
2022-09-19T11:08:49.208Z,94.73
2022-09-19T11:11:22.230Z,95.18
2022-09-19T11:14:11.434Z,95.62
2022-09-19T11:16:45.902Z,96.20
2022-09-19T11:19:30.136Z,96.43
2022-09-19T11:22:55.111Z,96.64
2022-09-19T11:25:31.834Z,97.15
2022-09-19T11:28:05.931Z,97.35
2022-09-19T11:31:06.737Z,97.67
2022-09-19T11:37:15.236Z,97.42
2022-09-19T11:40:05.197Z,97.79
2022-09-19T11:43:14.436Z,97.87
2022-09-19T11:46:40.393Z,98.05
2022-09-19T11:50:03.320Z,99.12
2022-09-19T11:53:03.470Z,98.93
2022-09-19T11:56:09.417Z,99.55
2022-09-19T11:59:02.181Z,100.00
2022-09-19T12:01:56.686Z,100.00
2022-09-19T12:05:29.579Z,99.90
2022-09-19T12:08:28.749Z,99.90
2022-09-19T12:11:10.215Z,100.00
2022-09-19T12:13:49.982Z,99.68
2022-09-19T12:16:26.214Z,99.95
2022-09-19T12:19:22.310Z,99.93
2022-09-19T12:22:13.104Z,99.79
2022-09-19T12:24:53.652Z,100.00
2022-09-19T12:27:46.319Z,99.84
2022-09-19T12:30:19.327Z,100.00
2022-09-19T12:33:07.453Z,100.00
2022-09-19T12:35:48.974Z,100.00
2022-09-19T12:38:36.464Z,100.00
2022-09-19T12:41:23.884Z,100.00
2022-09-19T12:44:27.308Z,100.00
2022-09-19T12:47:32.645Z,100.00
2022-09-19T12:50:33.169Z,100.00
2022-09-19T12:53:36.730Z,100.00
2022-09-19T12:56:17.646Z,100.00
2022-09-19T12:59:24.753Z,100.00
2022-09-19T13:02:03.323Z,100.00
2022-09-19T13:05:06.479Z,100.00
2022-09-19T13:07:56.349Z,99.98
2022-09-19T13:10:40.663Z,99.75
2022-09-19T13:13:36.509Z,99.47
2022-09-19T13:16:15.192Z,99.86
2022-09-19T13:19:10.368Z,99.98
2022-09-19T13:22:01.184Z,100.00
2022-09-19T13:24:41.854Z,99.67
2022-09-19T13:27:15.110Z,98.93
2022-09-19T13:29:46.975Z,98.41
2022-09-19T13:32:56.189Z,98.42
2022-09-19T13:35:26.125Z,99.08
2022-09-19T13:38:02.334Z,98.96
2022-09-19T13:41:18.117Z,98.77
2022-09-19T13:44:01.574Z,99.21
2022-09-19T13:47:06.346Z,99.42
2022-09-19T13:49:57.381Z,99.60
2022-09-19T13:52:35.346Z,99.99
2022-09-19T13:55:34.355Z,100.00
2022-09-19T13:58:40.102Z,100.00
2022-09-19T14:01:23.950Z,100.00
2022-09-19T14:04:22.534Z,100.00
2022-09-19T14:10:04.996Z,100.00
2022-09-19T14:13:00.672Z,100.00
2022-09-19T14:15:49.930Z,100.00
2022-09-19T14:18:19.794Z,100.00
2022-09-19T14:20:55.440Z,100.00
2022-09-19T14:23:29.446Z,100.00
2022-09-19T14:26:09.379Z,100.00
2022-09-19T14:29:21.316Z,100.00
2022-09-19T14:32:08.626Z,100.00
2022-09-19T14:34:55.448Z,100.00
2022-09-19T14:37:47.982Z,100.00
2022-09-19T14:41:16.508Z,100.00
2022-09-19T14:44:26.857Z,100.00
2022-09-19T14:47:01.675Z,100.00
2022-09-19T14:49:50.732Z,100.00
2022-09-19T14:52:23.791Z,100.00
2022-09-19T14:55:03.553Z,100.00
2022-09-19T14:57:33.183Z,100.00
2022-09-19T15:00:30.264Z,100.00
2022-09-19T15:02:59.826Z,100.00
2022-09-19T15:05:33.337Z,100.00
2022-09-19T15:08:30.998Z,100.00
2022-09-19T15:11:05.310Z,100.00
2022-09-19T15:13:34.611Z,100.00
2022-09-19T15:16:09.918Z,100.00
2022-09-19T15:18:47.382Z,100.00
2022-09-19T15:21:26.682Z,100.00
2022-09-19T15:24:00.130Z,100.00
2022-09-19T15:26:33.592Z,100.00
2022-09-19T15:29:03.813Z,100.00
2022-09-19T15:31:34.517Z,100.00
2022-09-19T15:34:07.246Z,100.00
2022-09-19T15:36:38.289Z,100.00
2022-09-19T15:39:10.378Z,100.00
2022-09-19T15:41:40.870Z,100.00
2022-09-19T15:44:28.518Z,100.00
2022-09-19T15:47:08.204Z,100.00
2022-09-19T15:49:40.713Z,100.00
2022-09-19T15:52:38.306Z,100.00
2022-09-19T15:55:07.662Z,100.00
2022-09-19T15:57:54.191Z,99.91
2022-09-19T16:00:30.026Z,98.94
2022-09-19T16:03:03.364Z,98.11
2022-09-19T16:05:35.639Z,97.51
2022-09-19T16:08:47.812Z,97.65
2022-09-19T16:11:37.684Z,97.57
2022-09-19T16:14:19.396Z,97.40
2022-09-19T16:16:54.939Z,97.47
2022-09-19T16:19:55.370Z,97.45
2022-09-19T16:22:26.160Z,97.70
2022-09-19T16:25:06.175Z,97.93
2022-09-19T16:27:37.240Z,98.26
2022-09-19T16:30:10.638Z,98.59
2022-09-19T16:32:43.266Z,98.90
2022-09-19T16:35:25.612Z,99.32
2022-09-19T16:37:53.969Z,99.77
2022-09-19T16:40:27.738Z,99.95
2022-09-19T16:42:56.350Z,100.00
2022-09-19T16:45:41.561Z,100.00
2022-09-19T16:48:10.303Z,100.00
2022-09-19T16:50:42.206Z,100.00
2022-09-19T16:53:14.500Z,100.00
2022-09-19T16:55:51.210Z,100.00
2022-09-19T16:58:22.569Z,100.00
2022-09-19T17:00:51.431Z,100.00
2022-09-19T17:03:20.695Z,100.00
2022-09-19T17:05:49.833Z,100.00
2022-09-19T17:08:18.463Z,100.00
2022-09-19T17:10:48.271Z,100.00
2022-09-19T17:13:16.844Z,100.00
2022-09-19T17:16:04.950Z,100.00
2022-09-19T17:18:33.617Z,100.00
2022-09-19T17:21:02.366Z,100.00
2022-09-19T17:23:31.439Z,100.00
2022-09-19T17:26:00.635Z,100.00
2022-09-19T17:28:30.609Z,100.00
2022-09-19T17:31:00.289Z,100.00
2022-09-19T17:33:30.264Z,100.00
2022-09-19T17:36:01.138Z,100.00
2022-09-19T17:38:32.108Z,100.00
2022-09-19T17:41:00.905Z,100.00
2022-09-19T17:43:29.565Z,100.00
2022-09-19T17:46:03.714Z,100.00
2022-09-19T17:48:32.458Z,100.00
2022-09-19T17:51:18.109Z,100.00
2022-09-19T17:53:47.299Z,100.00
2022-09-19T17:56:25.184Z,100.00
2022-09-19T17:59:03.176Z,100.00
2022-09-19T18:01:51.593Z,100.00
2022-09-19T18:04:20.179Z,100.00
2022-09-19T18:06:49.076Z,100.00
2022-09-19T18:09:19.897Z,100.00
2022-09-19T18:11:48.234Z,100.00
2022-09-19T18:14:18.081Z,100.00
2022-09-19T18:16:46.966Z,100.00
2022-09-19T18:19:15.402Z,100.00
2022-09-19T18:21:47.128Z,100.00
2022-09-19T18:24:15.570Z,100.00
2022-09-19T18:26:43.844Z,100.00
2022-09-19T18:29:15.824Z,100.00
2022-09-19T18:31:44.553Z,100.00
2022-09-19T18:34:13.562Z,100.00
2022-09-19T18:36:42.131Z,100.00
2022-09-19T18:39:13.430Z,100.00
2022-09-19T18:41:41.967Z,100.00
2022-09-19T18:44:10.373Z,100.00
2022-09-19T18:46:38.681Z,100.00
2022-09-19T18:49:07.324Z,100.00
2022-09-19T18:51:36.237Z,100.00
2022-09-19T18:54:04.887Z,100.00
2022-09-19T18:56:33.989Z,100.00
2022-09-19T18:59:03.614Z,100.00
2022-09-19T19:01:35.937Z,100.00
2022-09-19T19:04:05.678Z,100.00
2022-09-19T19:06:35.351Z,100.00
2022-09-19T19:09:06.167Z,100.00
2022-09-19T19:11:35.124Z,100.00
2022-09-19T19:14:03.815Z,100.00
2022-09-19T19:16:33.565Z,100.00
2022-09-19T19:19:05.055Z,100.00
2022-09-19T19:21:41.666Z,100.00
2022-09-19T19:24:17.274Z,100.00
2022-09-19T19:26:45.906Z,100.00
2022-09-19T19:29:14.296Z,100.00
2022-09-19T19:31:42.889Z,100.00
2022-09-19T19:34:11.368Z,100.00
2022-09-19T19:36:39.746Z,100.00
2022-09-19T19:39:09.302Z,100.00
2022-09-19T19:41:39.008Z,100.00
2022-09-19T19:44:08.070Z,100.00
2022-09-19T19:46:38.541Z,100.00
2022-09-19T19:49:08.588Z,100.00
2022-09-19T19:51:42.411Z,100.00
2022-09-19T19:54:15.704Z,100.00
2022-09-19T19:56:44.709Z,100.00
2022-09-19T19:59:13.412Z,100.00
2022-09-19T20:01:41.975Z,100.00
2022-09-19T20:04:14.880Z,100.00
2022-09-19T20:06:46.486Z,100.00
2022-09-19T20:09:15.478Z,100.00
2022-09-19T20:11:47.108Z,100.00
2022-09-19T20:14:18.022Z,100.00
2022-09-19T20:16:48.510Z,100.00
2022-09-19T20:19:18.076Z,100.00
2022-09-19T20:21:50.769Z,100.00
2022-09-19T20:24:23.953Z,100.00
2022-09-19T20:26:55.758Z,100.00
2022-09-19T20:29:24.799Z,100.00
2022-09-19T20:31:56.636Z,100.00
2022-09-19T20:43:07.836Z,100.00
2022-09-19T20:45:36.259Z,100.00
2022-09-19T20:48:05.819Z,100.00
2022-09-19T20:50:34.600Z,100.00
2022-09-19T20:53:02.878Z,100.00
2022-09-19T20:55:31.558Z,100.00
2022-09-19T20:57:59.821Z,100.00
2022-09-19T21:00:28.054Z,100.00
2022-09-19T21:02:56.401Z,100.00
2022-09-19T21:05:24.680Z,100.00
2022-09-19T21:07:53.276Z,100.00
2022-09-19T21:10:26.046Z,100.00
2022-09-19T21:12:54.309Z,100.00
2022-09-19T21:15:22.742Z,100.00
2022-09-19T21:17:51.647Z,100.00
2022-09-19T21:20:19.901Z,100.00
2022-09-19T21:22:48.208Z,100.00
2022-09-19T21:25:16.652Z,100.00
2022-09-19T21:27:44.980Z,100.00
2022-09-19T21:30:14.143Z,100.00
2022-09-19T21:32:43.248Z,100.00
2022-09-19T21:35:11.677Z,100.00
2022-09-19T21:37:40.010Z,100.00
2022-09-19T21:40:09.593Z,100.00
2022-09-19T21:42:37.931Z,100.00
2022-09-19T21:45:06.960Z,100.00
2022-09-19T21:47:35.251Z,100.00
2022-09-19T21:50:03.823Z,100.00
2022-09-19T21:52:32.085Z,100.00
2022-09-19T21:55:02.814Z,100.00
2022-09-19T21:57:31.451Z,100.00
2022-09-19T22:00:00.671Z,100.00
2022-09-19T22:02:29.070Z,100.00
2022-09-19T22:04:57.418Z,100.00
2022-09-19T22:07:25.696Z,100.00
2022-09-19T22:09:54.103Z,100.00
2022-09-19T22:12:22.462Z,100.00
2022-09-19T22:14:50.715Z,100.00
2022-09-19T22:17:19.008Z,100.00
2022-09-19T22:19:47.294Z,100.00
2022-09-19T22:22:15.580Z,100.00
2022-09-19T22:24:43.986Z,100.00
2022-09-19T22:27:12.279Z,100.00
2022-09-19T22:29:40.541Z,100.00
2022-09-19T22:32:08.767Z,100.00
2022-09-19T22:34:38.402Z,100.00
2022-09-19T22:37:06.710Z,100.00
2022-09-19T22:39:35.104Z,100.00
2022-09-19T22:42:05.311Z,100.00
2022-09-19T22:44:33.812Z,100.00
2022-09-19T22:47:02.206Z,100.00
2022-09-19T22:49:30.431Z,100.00
2022-09-19T22:51:58.735Z,100.00
2022-09-19T22:54:29.351Z,100.00
2022-09-19T22:56:58.040Z,100.00
2022-09-19T22:59:26.340Z,100.00
2022-09-19T23:01:54.722Z,100.00
2022-09-19T23:04:24.439Z,100.00
2022-09-19T23:06:52.776Z,100.00
2022-09-19T23:09:21.071Z,100.00
2022-09-19T23:11:49.519Z,100.00
2022-09-19T23:14:24.362Z,100.00
2022-09-19T23:16:54.480Z,100.00
2022-09-19T23:19:27.307Z,100.00
2022-09-19T23:22:01.114Z,100.00
2022-09-19T23:24:31.431Z,100.00
2022-09-19T23:27:00.759Z,100.00
2022-09-19T23:29:32.155Z,100.00
2022-09-19T23:32:02.339Z,100.00
2022-09-19T23:34:30.672Z,100.00
2022-09-19T23:36:59.182Z,100.00
2022-09-19T23:39:27.481Z,100.00
2022-09-19T23:41:55.846Z,100.00
2022-09-19T23:44:24.115Z,100.00
2022-09-19T23:46:52.376Z,100.00
2022-09-19T23:49:20.826Z,100.00
2022-09-19T23:51:49.086Z,100.00
2022-09-19T23:54:17.362Z,100.00
2022-09-19T23:56:45.669Z,100.00
2022-09-19T23:59:13.936Z,100.00
